createdAt,value
2023-01-13T00:01:34.031Z,63.92
2023-01-13T00:04:01.619Z,64.76
2023-01-13T00:06:29.755Z,63.53
2023-01-13T00:08:58.103Z,64.20
2023-01-13T00:11:26.594Z,64.09
2023-01-13T00:13:55.240Z,64.44
2023-01-13T00:16:22.615Z,64.41
2023-01-13T00:21:36.075Z,64.95
2023-01-13T00:24:03.489Z,64.02
2023-01-13T00:26:33.967Z,63.59
2023-01-13T00:29:03.653Z,63.59
2023-01-13T00:31:31.171Z,64.87
2023-01-13T00:34:00.410Z,64.94
2023-01-13T00:36:28.919Z,64.97
2023-01-13T00:38:56.267Z,65.17
2023-01-13T00:41:25.523Z,65.65
2023-01-13T00:43:53.267Z,65.79
2023-01-13T00:46:22.204Z,66.19
2023-01-13T00:48:50.118Z,66.15
2023-01-13T00:51:19.927Z,66.05
2023-01-13T00:53:50.217Z,65.50
2023-01-13T00:56:34.039Z,66.68
2023-01-13T00:59:06.010Z,66.92
2023-01-13T01:01:33.757Z,66.95
2023-01-13T01:04:01.399Z,66.99
2023-01-13T01:06:28.968Z,66.73
2023-01-13T01:08:56.969Z,66.79
2023-01-13T01:11:28.130Z,67.34
2023-01-13T01:13:57.278Z,66.96
2023-01-13T01:16:26.703Z,67.76
2023-01-13T01:18:55.100Z,67.07
2023-01-13T01:21:24.821Z,66.61
2023-01-13T01:23:53.243Z,66.96
2023-01-13T01:26:25.596Z,66.43
2023-01-13T01:28:54.204Z,66.69
2023-01-13T01:31:27.224Z,67.18
2023-01-13T01:33:55.455Z,67.89
2023-01-13T01:36:24.427Z,67.93
2023-01-13T01:38:51.905Z,68.51
2023-01-13T01:41:25.588Z,67.98
2023-01-13T01:44:03.059Z,67.38
2023-01-13T01:46:41.848Z,67.64
2023-01-13T01:49:13.339Z,68.59
2023-01-13T01:51:47.704Z,68.39
2023-01-13T01:54:22.366Z,68.64
2023-01-13T01:56:50.726Z,68.45
2023-01-13T01:59:18.504Z,68.64
2023-01-13T02:01:46.345Z,69.02
2023-01-13T02:04:20.870Z,69.77
2023-01-13T02:06:50.417Z,70.04
2023-01-13T02:09:18.013Z,71.02
2023-01-13T02:12:04.041Z,70.17
2023-01-13T02:14:33.776Z,69.49
2023-01-13T02:17:21.066Z,69.25
2023-01-13T02:19:54.587Z,69.38
2023-01-13T02:22:58.400Z,70.49
2023-01-13T02:25:47.812Z,69.82
2023-01-13T02:29:03.958Z,70.80
2023-01-13T02:31:44.817Z,69.05
2023-01-13T02:34:15.367Z,69.75
2023-01-13T02:36:55.762Z,70.50
2023-01-13T02:39:33.594Z,70.22
2023-01-13T02:42:34.573Z,69.88
2023-01-13T02:45:18.202Z,69.64
2023-01-13T02:47:50.444Z,70.05
2023-01-13T02:50:30.913Z,69.72
2023-01-13T02:53:08.902Z,69.62
2023-01-13T02:55:47.064Z,70.40
2023-01-13T02:58:19.306Z,69.48
2023-01-13T03:00:49.028Z,70.04
2023-01-13T03:03:16.785Z,69.88
2023-01-13T03:05:46.836Z,70.37
2023-01-13T03:08:34.053Z,70.92
2023-01-13T03:11:08.935Z,70.93
2023-01-13T03:14:08.861Z,70.81
2023-01-13T03:17:43.938Z,69.90
2023-01-13T03:20:29.310Z,69.77
2023-01-13T03:23:22.806Z,69.74
2023-01-13T03:25:59.574Z,70.21
2023-01-13T03:28:37.240Z,71.16
2023-01-13T03:31:10.506Z,71.14
2023-01-13T03:33:55.237Z,70.24
2023-01-13T03:36:26.510Z,69.84
2023-01-13T03:39:17.891Z,69.34
2023-01-13T03:41:53.662Z,69.97
2023-01-13T03:44:31.356Z,70.13
2023-01-13T03:47:18.639Z,69.60
2023-01-13T03:49:49.101Z,70.17
2023-01-13T03:52:26.091Z,69.89
2023-01-13T03:58:24.901Z,70.62
2023-01-13T04:04:38.862Z,69.57
2023-01-13T04:07:33.431Z,70.36
2023-01-13T04:10:05.406Z,70.46
2023-01-13T04:13:03.943Z,70.02
2023-01-13T04:15:35.423Z,70.36
2023-01-13T04:18:11.846Z,71.23
2023-01-13T04:21:07.309Z,71.01
2023-01-13T04:23:35.613Z,70.30
2023-01-13T04:28:48.556Z,72.03
2023-01-13T04:31:16.143Z,71.13
2023-01-13T04:33:43.995Z,70.55
2023-01-13T04:36:11.392Z,70.71
2023-01-13T04:38:38.989Z,70.31
2023-01-13T04:41:06.675Z,69.90
2023-01-13T04:43:34.279Z,70.27
2023-01-13T04:46:04.886Z,70.73
2023-01-13T04:48:32.848Z,70.86
2023-01-13T04:51:02.032Z,70.11
2023-01-13T04:53:29.729Z,69.21
2023-01-13T04:55:58.353Z,70.32
2023-01-13T04:58:26.562Z,69.79
2023-01-13T05:00:55.639Z,70.50
2023-01-13T05:03:24.883Z,70.78
2023-01-13T05:05:54.286Z,70.38
2023-01-13T05:08:21.900Z,69.78
2023-01-13T05:10:50.260Z,69.30
2023-01-13T05:13:38.214Z,71.01
2023-01-13T05:16:25.110Z,70.53
2023-01-13T05:18:52.907Z,69.51
2023-01-13T05:21:39.604Z,69.40
2023-01-13T05:24:27.990Z,69.33
2023-01-13T05:26:56.425Z,69.97
2023-01-13T05:29:24.639Z,69.95
2023-01-13T05:31:53.312Z,70.14
2023-01-13T05:34:21.352Z,69.61
2023-01-13T05:36:49.254Z,69.11
2023-01-13T05:42:19.337Z,70.63
2023-01-13T05:44:48.435Z,70.71
2023-01-13T05:47:16.677Z,70.97
2023-01-13T05:49:46.917Z,71.55
2023-01-13T05:52:16.613Z,70.75
2023-01-13T05:54:44.544Z,70.92
2023-01-13T05:57:12.588Z,70.69
2023-01-13T05:59:40.282Z,70.97
2023-01-13T06:02:08.032Z,70.64
2023-01-13T06:04:37.196Z,71.03
2023-01-13T06:07:06.740Z,71.13
2023-01-13T06:09:34.485Z,71.28
2023-01-13T06:12:02.587Z,70.87
2023-01-13T06:14:40.539Z,70.43
2023-01-13T06:17:16.431Z,70.25
2023-01-13T06:19:47.824Z,70.88
2023-01-13T06:22:22.523Z,70.96
2023-01-13T06:24:55.704Z,72.13
2023-01-13T06:27:27.714Z,71.40
2023-01-13T06:30:02.153Z,71.10
2023-01-13T06:32:40.005Z,70.27
2023-01-13T06:35:15.932Z,70.83
2023-01-13T06:37:53.572Z,70.56
2023-01-13T06:40:22.407Z,70.34
2023-01-13T06:43:14.383Z,71.10
2023-01-13T06:45:55.704Z,71.69
2023-01-13T06:48:36.104Z,70.36
2023-01-13T06:51:07.854Z,71.58
2023-01-13T06:53:35.911Z,71.39
2023-01-13T06:56:04.171Z,71.25
2023-01-13T06:58:32.589Z,70.83
2023-01-13T07:01:01.431Z,71.02
2023-01-13T07:03:29.884Z,70.80
2023-01-13T07:05:59.549Z,71.20
2023-01-13T07:08:28.509Z,71.37
2023-01-13T07:10:56.102Z,71.44
2023-01-13T07:13:42.200Z,71.05
2023-01-13T07:16:10.696Z,70.29
2023-01-13T07:18:40.012Z,70.03
2023-01-13T07:21:14.251Z,70.13
2023-01-13T07:23:43.429Z,70.98
2023-01-13T07:27:01.836Z,70.27
2023-01-13T07:29:33.998Z,69.85
2023-01-13T07:32:07.666Z,69.56
2023-01-13T07:34:58.248Z,70.13
2023-01-13T07:37:29.729Z,70.09
2023-01-13T07:43:08.237Z,69.31
2023-01-13T07:45:36.288Z,69.01
2023-01-13T07:48:05.104Z,69.55
2023-01-13T07:50:35.363Z,69.55
2023-01-13T07:53:32.536Z,70.37
2023-01-13T07:56:03.150Z,70.06
2023-01-13T07:58:31.465Z,69.45
2023-01-13T08:00:59.390Z,70.16
2023-01-13T08:03:29.061Z,70.08
2023-01-13T08:05:57.235Z,69.71
2023-01-13T08:08:27.939Z,70.89
2023-01-13T08:11:00.238Z,70.26
2023-01-13T08:13:28.542Z,70.07
2023-01-13T08:16:02.956Z,70.26
2023-01-13T08:18:32.731Z,70.02
2023-01-13T08:21:06.335Z,69.96
2023-01-13T08:23:36.534Z,71.01
2023-01-13T08:26:18.747Z,70.10
2023-01-13T08:29:24.589Z,69.17
2023-01-13T08:32:01.174Z,69.17
2023-01-13T08:38:26.488Z,68.78
2023-01-13T08:41:14.066Z,69.44
2023-01-13T08:43:42.157Z,70.32
2023-01-13T08:46:10.087Z,70.44
2023-01-13T08:48:39.659Z,70.28
2023-01-13T08:53:53.401Z,69.76
2023-01-13T08:56:23.512Z,69.13
2023-01-13T08:59:11.105Z,69.64
2023-01-13T09:01:46.310Z,69.69
2023-01-13T09:04:23.770Z,70.07
2023-01-13T09:06:52.282Z,69.89
2023-01-13T09:09:21.889Z,70.19
2023-01-13T09:12:11.232Z,69.82
2023-01-13T09:14:45.267Z,69.68
2023-01-13T09:17:15.539Z,69.13
2023-01-13T09:19:47.670Z,67.93
2023-01-13T09:22:20.368Z,67.66
2023-01-13T09:24:49.428Z,68.38
2023-01-13T09:27:20.536Z,68.05
2023-01-13T09:29:54.608Z,67.22
2023-01-13T09:32:25.851Z,66.97
2023-01-13T09:35:02.977Z,66.06
2023-01-13T09:37:37.902Z,66.05
2023-01-13T09:40:11.806Z,65.86
2023-01-13T09:43:02.294Z,64.67
2023-01-13T09:45:38.013Z,64.00
2023-01-13T09:48:05.964Z,65.67
2023-01-13T09:50:51.523Z,64.87
2023-01-13T09:53:30.516Z,64.04
2023-01-13T09:55:58.776Z,63.07
2023-01-13T09:58:27.442Z,64.04
2023-01-13T10:01:00.882Z,63.74
2023-01-13T10:03:30.730Z,63.67
2023-01-13T10:06:16.295Z,64.40
2023-01-13T10:08:47.688Z,64.79
2023-01-13T10:15:04.136Z,64.89
2023-01-13T10:17:52.998Z,66.44
2023-01-13T10:20:34.472Z,65.23
2023-01-13T10:23:24.009Z,66.24
2023-01-13T10:26:01.536Z,66.98
2023-01-13T10:31:15.934Z,66.75
2023-01-13T10:33:46.793Z,66.96
2023-01-13T10:36:23.473Z,66.57
2023-01-13T10:38:52.013Z,67.01
2023-01-13T10:41:25.596Z,65.87
2023-01-13T10:43:53.486Z,64.85
2023-01-13T10:46:21.636Z,66.24
2023-01-13T10:48:56.366Z,67.48
2023-01-13T10:51:28.495Z,68.61
2023-01-13T10:54:00.883Z,68.15
2023-01-13T10:56:33.819Z,68.60
2023-01-13T10:59:20.544Z,67.32
2023-01-13T11:02:13.051Z,68.14
2023-01-13T11:04:54.540Z,68.79
2023-01-13T11:07:31.432Z,68.75
2023-01-13T11:10:28.841Z,68.29
2023-01-13T11:13:21.789Z,67.21
2023-01-13T11:15:55.646Z,67.58
2023-01-13T11:18:40.822Z,68.30
2023-01-13T11:21:31.892Z,68.10
2023-01-13T11:24:21.619Z,67.56
2023-01-13T11:27:03.710Z,66.28
2023-01-13T11:32:27.334Z,66.82
2023-01-13T11:34:56.926Z,66.58
2023-01-13T11:37:26.625Z,66.25
2023-01-13T11:40:21.027Z,65.90
2023-01-13T11:43:33.491Z,67.16
2023-01-13T11:46:11.612Z,66.63
2023-01-13T11:48:42.856Z,67.89
2023-01-13T11:51:37.087Z,68.04
2023-01-13T11:54:27.635Z,67.01
2023-01-13T11:56:58.676Z,67.87
2023-01-13T11:59:41.979Z,66.55
2023-01-13T12:02:45.496Z,65.96
2023-01-13T12:06:01.880Z,66.20
2023-01-13T12:09:05.125Z,66.21
2023-01-13T12:12:14.685Z,66.74
2023-01-13T12:14:45.413Z,67.02
2023-01-13T12:17:32.217Z,67.11
2023-01-13T12:20:15.455Z,67.12
2023-01-13T12:22:47.171Z,67.04
2023-01-13T12:25:28.329Z,66.29
2023-01-13T12:28:16.819Z,66.33
2023-01-13T12:31:00.783Z,66.95
2023-01-13T12:33:49.951Z,65.96
2023-01-13T12:36:23.664Z,65.51
2023-01-13T12:39:20.651Z,66.45
2023-01-13T12:42:17.474Z,65.39
2023-01-13T12:45:08.350Z,65.81
2023-01-13T12:47:44.623Z,66.49
2023-01-13T12:50:24.441Z,65.56
2023-01-13T12:52:58.131Z,65.35
2023-01-13T12:55:27.124Z,64.77
2023-01-13T12:57:58.417Z,64.79
2023-01-13T13:00:49.117Z,65.16
2023-01-13T13:03:37.570Z,65.09
2023-01-13T13:06:18.841Z,64.74
2023-01-13T13:09:05.738Z,64.25
2023-01-13T13:11:59.977Z,63.43
2023-01-13T13:14:39.595Z,63.67
2023-01-13T13:17:29.641Z,62.41
2023-01-13T13:20:01.797Z,61.86
2023-01-13T13:22:44.983Z,61.36
2023-01-13T13:25:25.329Z,61.43
2023-01-13T13:28:13.278Z,59.88
2023-01-13T13:30:50.706Z,60.50
2023-01-13T13:33:38.452Z,61.45
2023-01-13T13:36:14.428Z,60.36
2023-01-13T13:39:21.860Z,59.28
2023-01-13T13:42:14.899Z,59.78
2023-01-13T13:45:06.706Z,59.67
2023-01-13T13:47:42.171Z,59.00
2023-01-13T13:50:21.266Z,58.13
2023-01-13T13:52:59.668Z,57.70
2023-01-13T13:55:38.433Z,58.37
2023-01-13T13:58:17.711Z,57.80
2023-01-13T14:00:48.771Z,57.90
2023-01-13T14:03:25.229Z,59.14
2023-01-13T14:05:56.244Z,58.72
2023-01-13T14:08:25.170Z,59.29
2023-01-13T14:10:53.443Z,58.97
2023-01-13T14:16:15.667Z,58.25
2023-01-13T14:18:48.502Z,59.03
2023-01-13T14:21:27.946Z,58.71
2023-01-13T14:24:11.486Z,57.69
2023-01-13T14:26:40.024Z,57.98
2023-01-13T14:29:07.756Z,57.80
2023-01-13T14:31:36.305Z,58.06
2023-01-13T14:34:31.221Z,57.11
2023-01-13T14:36:54.458Z,56.58
2023-01-13T14:39:27.084Z,57.68
2023-01-13T14:41:54.991Z,56.48
2023-01-13T14:44:29.151Z,57.01
2023-01-13T14:46:59.215Z,58.07
2023-01-13T14:49:33.040Z,57.62
2023-01-13T14:52:19.742Z,57.51
2023-01-13T14:54:47.953Z,57.34
2023-01-13T14:57:28.010Z,56.90
2023-01-13T14:59:58.088Z,58.19
2023-01-13T15:02:25.828Z,57.29
2023-01-13T15:04:54.891Z,57.32
2023-01-13T15:07:29.740Z,57.59
2023-01-13T15:10:00.726Z,57.72
2023-01-13T15:12:41.136Z,57.58
2023-01-13T15:15:26.183Z,57.15
2023-01-13T15:17:53.765Z,56.86
2023-01-13T15:20:23.784Z,57.78
2023-01-13T15:22:52.681Z,57.57
2023-01-13T15:28:08.237Z,57.57
2023-01-13T15:30:35.646Z,57.73
2023-01-13T15:33:03.120Z,57.17
2023-01-13T15:35:30.711Z,56.64
2023-01-13T15:40:54.750Z,57.43
2023-01-13T15:43:42.974Z,57.65
2023-01-13T15:46:31.410Z,57.50
2023-01-13T15:49:02.389Z,57.54
2023-01-13T15:51:29.853Z,57.84
2023-01-13T15:54:00.823Z,57.24
2023-01-13T15:59:24.582Z,58.81
2023-01-13T16:01:52.332Z,59.38
2023-01-13T16:04:19.767Z,59.13
2023-01-13T16:06:47.818Z,59.06
2023-01-13T16:09:17.051Z,58.59
2023-01-13T16:11:44.545Z,58.47
2023-01-13T16:14:12.028Z,57.21
2023-01-13T16:16:39.733Z,57.58
2023-01-13T16:19:07.194Z,58.24
2023-01-13T16:21:34.814Z,57.80
2023-01-13T16:24:02.277Z,57.03
2023-01-13T16:26:30.519Z,57.41
2023-01-13T16:28:58.652Z,57.29
2023-01-13T16:31:33.207Z,56.99
2023-01-13T16:34:02.214Z,57.65
2023-01-13T16:36:32.213Z,57.85
2023-01-13T16:38:59.611Z,57.52
2023-01-13T16:41:28.094Z,57.97
2023-01-13T16:43:55.783Z,57.59
2023-01-13T16:49:17.470Z,57.95
2023-01-13T16:51:44.790Z,58.58
2023-01-13T16:54:12.526Z,57.92
2023-01-13T16:59:30.204Z,57.88
2023-01-13T17:01:57.883Z,58.96
2023-01-13T17:04:25.420Z,58.36
2023-01-13T17:07:03.309Z,58.50
2023-01-13T17:09:31.370Z,58.59
2023-01-13T17:11:59.296Z,58.24
2023-01-13T17:14:26.954Z,58.04
2023-01-13T17:16:57.338Z,59.07
2023-01-13T17:19:25.886Z,58.83
2023-01-13T17:21:53.323Z,58.54
2023-01-13T17:27:03.725Z,59.15
2023-01-13T17:29:33.141Z,59.97
2023-01-13T17:32:01.430Z,60.29
2023-01-13T17:34:28.962Z,60.16
2023-01-13T17:36:57.062Z,59.60
2023-01-13T17:39:26.715Z,59.34
2023-01-13T17:41:56.246Z,58.78
2023-01-13T17:44:23.961Z,59.62
2023-01-13T17:46:51.798Z,59.72
2023-01-13T17:49:21.536Z,60.66
2023-01-13T17:51:51.434Z,60.01
2023-01-13T17:54:19.204Z,60.48
2023-01-13T17:56:46.866Z,59.84
2023-01-13T17:59:16.523Z,59.83
2023-01-13T18:01:44.458Z,58.59
2023-01-13T18:04:22.929Z,58.84
2023-01-13T18:06:50.995Z,58.29
2023-01-13T18:09:18.480Z,58.34
2023-01-13T18:11:47.362Z,58.08
2023-01-13T18:14:15.321Z,57.76
2023-01-13T18:16:43.396Z,57.50
2023-01-13T18:19:29.659Z,57.32
2023-01-13T18:22:15.435Z,57.57
2023-01-13T18:25:01.438Z,57.23
2023-01-13T18:27:36.688Z,57.37
2023-01-13T18:30:05.130Z,58.08
2023-01-13T18:32:33.801Z,57.24
2023-01-13T18:35:06.724Z,57.68
2023-01-13T18:37:36.347Z,57.90
2023-01-13T18:40:05.571Z,57.71
2023-01-13T18:42:51.456Z,58.73
2023-01-13T18:45:27.956Z,58.50
2023-01-13T18:47:57.958Z,58.40
2023-01-13T18:50:26.280Z,58.15
2023-01-13T18:52:54.156Z,57.64
2023-01-13T18:55:21.917Z,57.30
2023-01-13T18:57:50.555Z,57.86
2023-01-13T19:00:20.405Z,57.83
2023-01-13T19:02:48.894Z,57.89
2023-01-13T19:05:16.707Z,58.87
2023-01-13T19:07:51.287Z,58.31
2023-01-13T19:10:19.246Z,58.02
2023-01-13T19:12:46.857Z,57.29
2023-01-13T19:15:14.388Z,57.40
2023-01-13T19:17:41.871Z,57.61
2023-01-13T19:20:11.579Z,57.16
2023-01-13T19:22:39.301Z,57.28
2023-01-13T19:25:07.053Z,58.19
2023-01-13T19:27:34.503Z,58.05
2023-01-13T19:30:02.354Z,58.70
2023-01-13T19:32:33.862Z,58.57
2023-01-13T19:35:01.335Z,58.74
2023-01-13T19:37:30.642Z,58.29
2023-01-13T19:39:59.624Z,58.47
2023-01-13T19:42:46.587Z,58.05
2023-01-13T19:45:26.656Z,57.76
2023-01-13T19:47:55.221Z,58.69
2023-01-13T19:50:22.782Z,58.66
2023-01-13T19:52:50.234Z,58.36
2023-01-13T19:55:17.754Z,59.42
2023-01-13T19:57:45.493Z,59.13
2023-01-13T20:00:15.457Z,60.08
2023-01-13T20:02:49.862Z,59.58
2023-01-13T20:05:21.545Z,59.72
2023-01-13T20:07:50.765Z,58.97
2023-01-13T20:10:20.637Z,58.64
2023-01-13T20:12:48.306Z,58.56
2023-01-13T20:15:16.295Z,58.96
2023-01-13T20:17:43.814Z,59.09
2023-01-13T20:20:12.194Z,59.07
2023-01-13T20:22:40.184Z,59.19
2023-01-13T20:25:08.967Z,59.30
2023-01-13T20:27:36.908Z,59.10
2023-01-13T20:30:05.961Z,58.35
2023-01-13T20:32:33.384Z,58.49
2023-01-13T20:35:00.927Z,59.02
2023-01-13T20:37:28.645Z,58.92
2023-01-13T20:39:58.307Z,58.09
2023-01-13T20:42:45.193Z,58.73
2023-01-13T20:45:17.446Z,58.40
2023-01-13T20:47:45.825Z,58.24
2023-01-13T20:50:14.555Z,58.07
2023-01-13T20:52:42.715Z,58.30
2023-01-13T20:55:10.539Z,58.82
2023-01-13T20:57:38.072Z,58.58
2023-01-13T21:00:06.276Z,57.61
2023-01-13T21:02:34.267Z,57.62
2023-01-13T21:05:01.718Z,58.28
2023-01-13T21:07:30.401Z,58.75
2023-01-13T21:09:58.040Z,57.54
2023-01-13T21:12:44.195Z,57.50
2023-01-13T21:15:20.357Z,58.39
2023-01-13T21:18:09.187Z,57.53
2023-01-13T21:20:38.075Z,58.07
2023-01-13T21:23:05.815Z,58.18
2023-01-13T21:25:35.507Z,57.28
2023-01-13T21:28:11.879Z,57.79
2023-01-13T21:30:39.899Z,57.41
2023-01-13T21:33:07.435Z,57.56
2023-01-13T21:35:38.673Z,57.76
2023-01-13T21:38:06.145Z,58.13
2023-01-13T21:40:33.749Z,58.54
2023-01-13T21:43:19.544Z,58.85
2023-01-13T21:46:05.706Z,58.14
2023-01-13T21:48:33.292Z,58.27
2023-01-13T21:51:01.662Z,57.80
2023-01-13T21:53:29.397Z,57.89
2023-01-13T21:55:56.873Z,58.15
2023-01-13T21:58:24.649Z,57.58
2023-01-13T22:00:52.102Z,57.64
2023-01-13T22:03:19.821Z,57.73
2023-01-13T22:05:54.813Z,56.29
2023-01-13T22:08:22.654Z,56.97
2023-01-13T22:10:58.250Z,56.04
2023-01-13T22:16:49.481Z,57.24
2023-01-13T22:19:18.517Z,56.33
2023-01-13T22:21:47.116Z,56.58
2023-01-13T22:24:18.617Z,56.79
2023-01-13T22:26:46.006Z,56.18
2023-01-13T22:29:13.499Z,57.28
2023-01-13T22:31:40.916Z,56.77
2023-01-13T22:34:08.440Z,56.37
2023-01-13T22:36:35.819Z,56.11
2023-01-13T22:39:03.505Z,56.20
2023-01-13T22:41:30.980Z,56.43
2023-01-13T22:43:58.956Z,55.79
2023-01-13T22:46:26.491Z,56.48
2023-01-13T22:51:43.565Z,56.83
2023-01-13T22:54:11.468Z,57.50
2023-01-13T22:56:39.840Z,57.36
2023-01-13T22:59:11.108Z,56.78
2023-01-13T23:01:39.356Z,56.41
2023-01-13T23:04:10.201Z,56.44
2023-01-13T23:06:37.870Z,56.50
2023-01-13T23:09:06.149Z,56.32
2023-01-13T23:11:33.731Z,55.71
2023-01-13T23:14:06.609Z,56.04
2023-01-13T23:16:37.202Z,57.53
2023-01-13T23:19:05.696Z,55.98
2023-01-13T23:21:36.495Z,56.17
2023-01-13T23:24:05.542Z,56.42
2023-01-13T23:26:34.473Z,56.66
2023-01-13T23:29:13.346Z,56.23
2023-01-13T23:34:23.372Z,56.01
2023-01-13T23:36:50.786Z,57.24
2023-01-13T23:39:18.403Z,56.34
2023-01-13T23:41:45.780Z,56.20
2023-01-13T23:44:13.262Z,55.72
2023-01-13T23:46:40.797Z,56.42
2023-01-13T23:49:08.511Z,56.22
2023-01-13T23:51:36.089Z,56.86
2023-01-13T23:54:03.610Z,55.51
2023-01-13T23:56:53.862Z,55.89
2023-01-13T23:59:21.623Z,56.17
